< < Back
Terminal Aerodrome Forecast


Current Version              Previous Versions:   1  2  3  4  5  6  7  8  9  

Terminal Aerodrome Forecast

776
FTUS44 KOHX 302000 AAC
TAFCSV
TAF AMD
KCSV 302002Z 3020/3118 28012G17KT P6SM SKC
     FM310200 00000KT P6SM SKC
     FM311500 24007G15KT P6SM SKC=

Latest METAR

771
SAUS70 KWBC 311600 RRG
MTRCSV
METAR KCSV 311553Z AUTO 26012G20KT 10SM FEW030 SCT037 18/08 A3002 RMK
AO2 SLP158 T01830078


USA.gov is the U.S. government's official web portal to all federal, state and local government web resources and services.